Time;durP1;ratioP1;P1;durP2;ratioP2;P2;SDS_P1;SDS_P2;PMS_P1;PMS_P2;Temp;Humidity;BMP_temperature;BMP_pressure;BME280_temperature;BME280_humidity;BME280_pressure;Samples;Min_cycle;Max_cycle;Signal;HPM_P1;HPM_P2
2022/01/24 00:01:36;;;;;;;0.10;0.10;;;3.30;99.90;;;;;;5042350;28;20028;-73
2022/01/24 00:04:03;;;;;;;0.50;0.50;;;3.30;99.90;;;;;;5046130;28;20109;-73
2022/01/24 00:06:31;;;;;;;0.10;0.10;;;3.40;99.90;;;;;;5042038;28;20017;-73
2022/01/24 00:08:56;;;;;;;0.10;0.10;;;3.20;99.90;;;;;;5038203;28;20462;-73
2022/01/24 00:11:27;;;;;;;0.10;0.10;;;3.20;99.90;;;;;;5041498;28;20053;-73
2022/01/24 00:27:11;;;;;;;0.10;0.10;;;3.20;99.90;;;;;;5043626;28;20028;-73
2022/01/24 00:29:36;;;;;;;0.10;0.10;;;3.20;99.90;;;;;;5041577;28;20025;-74
2022/01/24 00:32:02;;;;;;;0.10;0.10;;;3.10;99.90;;;;;;5041071;28;20521;-73
2022/01/24 00:34:29;;;;;;;0.10;0.10;;;3.10;99.90;;;;;;5042574;28;20021;-74
2022/01/24 00:36:54;;;;;;;0.10;0.10;;;3.00;99.90;;;;;;5043666;28;20033;-73
2022/01/24 00:39:22;;;;;;;0.20;0.20;;;3.00;99.90;;;;;;5045838;28;20024;-73
2022/01/24 00:47:02;;;;;;;0.10;0.10;;;3.00;99.90;;;;;;5047753;28;20158;-73
2022/01/24 00:49:49;;;;;;;0.10;0.10;;;3.00;99.90;;;;;;5046753;28;20108;-76
2022/01/24 00:55:04;;;;;;;0.10;0.10;;;3.00;99.90;;;;;;5044397;28;20040;-73
2022/01/24 00:57:29;;;;;;;0.10;0.10;;;3.00;99.90;;;;;;5046744;28;20760;-74
2022/01/24 00:59:55;;;;;;;0.10;0.10;;;3.00;99.90;;;;;;5052353;28;20036;-73
2022/01/24 01:02:21;;;;;;;0.10;0.10;;;3.00;99.90;;;;;;5064965;22;20525;-71
2022/01/24 01:07:39;;;;;;;0.10;0.10;;;2.90;99.90;;;;;;5072087;28;20020;-70
2022/01/24 01:18:20;;;;;;;0.20;0.20;;;2.90;99.90;;;;;;5069893;28;20055;-71
2022/01/24 01:23:31;;;;;;;0.10;0.10;;;3.00;99.90;;;;;;5052505;28;20021;-70
2022/01/24 01:25:59;;;;;;;0.10;0.10;;;2.90;99.90;;;;;;5068021;28;20020;-70
2022/01/24 01:28:27;;;;;;;0.10;0.10;;;2.90;99.90;;;;;;5050084;28;20459;-72
2022/01/24 01:30:56;;;;;;;0.10;0.10;;;2.90;99.90;;;;;;5052148;28;20095;-70
2022/01/24 01:33:34;;;;;;;0.10;0.10;;;2.90;99.90;;;;;;5051695;28;20047;-70
2022/01/24 01:38:42;;;;;;;0.10;0.10;;;2.80;99.90;;;;;;5071829;28;20029;-70
2022/01/24 01:57:12;;;;;;;0.40;0.40;;;2.60;99.90;;;;;;5074669;28;20481;-71
2022/01/24 01:59:38;;;;;;;0.10;0.10;;;2.70;99.90;;;;;;5083209;28;20405;-71
2022/01/24 02:02:04;;;;;;;0.10;0.10;;;2.60;99.90;;;;;;5057586;28;20103;-70
2022/01/24 02:04:29;;;;;;;0.10;0.10;;;2.50;99.90;;;;;;5051308;28;20031;-70
2022/01/24 02:06:55;;;;;;;0.10;0.10;;;2.60;99.90;;;;;;5051209;28;20100;-70
2022/01/24 02:09:29;;;;;;;0.10;0.10;;;2.60;99.90;;;;;;5057713;28;20047;-71
2022/01/24 02:11:54;;;;;;;0.10;0.10;;;2.50;99.90;;;;;;5069192;28;20028;-71
2022/01/24 02:14:24;;;;;;;0.10;0.10;;;2.50;99.90;;;;;;5071373;28;20040;-70
2022/01/24 02:16:57;;;;;;;0.10;0.10;;;2.50;99.90;;;;;;5071243;28;20115;-70
2022/01/24 02:19:51;;;;;;;0.35;0.35;;;2.40;99.90;;;;;;5066897;28;20021;-70
2022/01/24 02:24:59;;;;;;;0.10;0.10;;;2.40;99.90;;;;;;5064367;28;20037;-70
2022/01/24 02:27:28;;;;;;;0.10;0.10;;;2.40;99.90;;;;;;5070369;28;20447;-70
2022/01/24 02:32:35;;;;;;;0.10;0.10;;;2.30;99.90;;;;;;5055727;28;20397;-70
2022/01/24 02:35:00;;;;;;;0.10;0.10;;;2.20;99.90;;;;;;5070723;28;20111;-69
2022/01/24 02:37:26;;;;;;;0.25;0.25;;;2.30;99.90;;;;;;5059043;28;20509;-69
2022/01/24 02:40:00;;;;;;;0.10;0.10;;;2.10;99.90;;;;;;5055279;28;20039;-69
2022/01/24 02:53:30;;;;;;;0.68;0.68;;;2.10;99.90;;;;;;5066827;28;20040;-70
2022/01/24 02:55:56;;;;;;;0.10;0.10;;;3.00;99.90;;;;;;5050558;28;20017;-71
2022/01/24 02:58:22;;;;;;;0.10;0.10;;;2.10;99.90;;;;;;5049878;28;20351;-70
2022/01/24 03:00:49;;;;;;;0.10;0.10;;;2.10;99.90;;;;;;5049187;28;20037;-71
2022/01/24 03:03:15;;;;;;;0.10;0.10;;;2.10;99.90;;;;;;5060616;28;20040;-70
2022/01/24 03:05:40;;;;;;;0.10;0.10;;;2.10;99.90;;;;;;5066205;28;20024;-70
2022/01/24 03:08:06;;;;;;;0.20;0.20;;;2.00;99.90;;;;;;5069483;28;20508;-70
2022/01/24 03:10:43;;;;;;;0.10;0.10;;;2.00;99.90;;;;;;5069788;28;20028;-70
2022/01/24 03:15:34;;;;;;;0.10;0.10;;;2.00;99.90;;;;;;5050003;28;20150;-70
2022/01/24 03:18:00;;;;;;;0.10;0.10;;;2.00;99.90;;;;;;5049756;28;20036;-70
2022/01/24 03:20:26;;;;;;;0.10;0.10;;;1.90;99.90;;;;;;5049936;28;20479;-70
2022/01/24 03:22:51;;;;;;;0.10;0.10;;;1.90;99.90;;;;;;5050677;28;20036;-71
2022/01/24 03:25:17;;;;;;;0.10;0.10;;;1.90;99.90;;;;;;5068461;28;20025;-70
2022/01/24 03:27:42;;;;;;;0.10;0.10;;;1.90;99.90;;;;;;5069683;28;20037;-70
2022/01/24 03:30:08;;;;;;;0.20;0.20;;;1.90;99.90;;;;;;5069607;28;20025;-71
2022/01/24 03:32:34;;;;;;;0.28;0.28;;;1.80;99.90;;;;;;5058665;28;20029;-71
2022/01/24 03:34:59;;;;;;;0.10;0.10;;;1.80;99.90;;;;;;5050446;28;20035;-72
2022/01/24 03:37:25;;;;;;;0.10;0.10;;;1.80;99.90;;;;;;5049449;28;20426;-70
2022/01/24 03:39:51;;;;;;;0.10;0.10;;;1.80;99.90;;;;;;5054181;28;20052;-70
2022/01/24 03:42:16;;;;;;;0.30;0.30;;;1.80;99.90;;;;;;5077954;28;20059;-70
2022/01/24 03:44:44;;;;;;;0.10;0.10;;;1.80;99.90;;;;;;5069057;28;20048;-70
2022/01/24 03:47:30;;;;;;;0.10;0.10;;;1.80;99.90;;;;;;5069379;28;20024;-70
2022/01/24 03:49:56;;;;;;;0.10;0.10;;;1.80;99.90;;;;;;5063408;28;20541;-71
2022/01/24 03:52:23;;;;;;;0.20;0.20;;;1.80;99.90;;;;;;5057787;28;20056;-70
2022/01/24 03:54:49;;;;;;;0.30;0.30;;;1.80;99.90;;;;;;5069779;28;20023;-70
2022/01/24 03:57:17;;;;;;;0.10;0.10;;;1.90;99.90;;;;;;5070634;28;20021;-70
2022/01/24 03:59:43;;;;;;;0.10;0.10;;;1.80;99.90;;;;;;5063582;28;20082;-70
2022/01/24 04:02:10;;;;;;;0.10;0.10;;;1.80;99.90;;;;;;5063208;28;20033;-69
2022/01/24 04:04:36;;;;;;;0.10;0.10;;;1.80;99.90;;;;;;5073240;28;20052;-69
2022/01/24 04:07:02;;;;;;;0.10;0.10;;;1.80;99.90;;;;;;5073280;28;20040;-71
2022/01/24 04:09:28;;;;;;;0.10;0.10;;;1.80;99.90;;;;;;5069683;28;20039;-70
2022/01/24 04:11:56;;;;;;;0.10;0.10;;;1.80;99.90;;;;;;5072851;28;20028;-70
2022/01/24 04:17:08;;;;;;;0.10;0.10;;;1.80;99.90;;;;;;5073381;28;20056;-70
2022/01/24 04:22:11;;;;;;;;;;;1.90;99.90;;;;;;5054535;28;20041;-71
2022/01/24 04:24:37;;;;;;;0.10;0.10;;;1.90;99.90;;;;;;5073177;28;19916;-70
2022/01/24 04:27:03;;;;;;;0.30;0.30;;;1.90;99.90;;;;;;5064067;28;20147;-71
2022/01/24 04:29:29;;;;;;;0.10;0.10;;;1.90;99.90;;;;;;5052997;28;20025;-70
2022/01/24 04:31:55;;;;;;;0.10;0.10;;;1.90;99.90;;;;;;5054752;28;20055;-70
2022/01/24 04:34:21;;;;;;;0.17;0.17;;;1.80;99.90;;;;;;5073109;28;20470;-70
2022/01/24 04:36:47;;;;;;;0.47;0.47;;;1.70;99.90;;;;;;5066255;28;20139;-70
2022/01/24 04:39:14;;;;;;;0.10;0.10;;;1.70;99.90;;;;;;5068701;28;20120;-70
2022/01/24 04:41:44;;;;;;;0.10;0.10;;;1.60;99.90;;;;;;5072872;28;20039;-70
2022/01/24 04:44:45;;;;;;;0.10;0.10;;;1.60;99.90;;;;;;5036052;28;20017;-70
2022/01/24 04:55:03;;;;;;;0.10;0.10;;;1.60;99.90;;;;;;5072790;28;20043;-71
2022/01/24 04:57:29;;;;;;;0.10;0.10;;;1.60;99.90;;;;;;5072348;28;20441;-71
2022/01/24 05:00:00;;;;;;;0.10;0.10;;;1.50;99.90;;;;;;5062645;28;20028;-71
2022/01/24 05:02:27;;;;;;;0.10;0.10;;;1.50;99.90;;;;;;5066741;28;20074;-71
2022/01/24 05:04:53;;;;;;;0.10;0.10;;;1.50;99.90;;;;;;5054729;28;20088;-70
2022/01/24 05:07:19;;;;;;;0.10;0.10;;;1.50;99.90;;;;;;5072154;28;20017;-70
2022/01/24 05:09:54;;;;;;;0.10;0.10;;;1.50;99.90;;;;;;5060063;28;20471;-72
2022/01/24 05:25:44;;;;;;;0.10;0.10;;;1.50;99.90;;;;;;5072434;28;20086;-71
2022/01/24 05:28:10;;;;;;;0.10;0.10;;;1.50;99.90;;;;;;5057126;28;20478;-71
2022/01/24 05:30:35;;;;;;;0.10;0.10;;;1.60;99.90;;;;;;5060514;28;20104;-71
2022/01/24 05:33:01;;;;;;;0.10;0.10;;;1.60;99.90;;;;;;5071865;28;20523;-71
2022/01/24 05:35:27;;;;;;;0.17;0.17;;;1.60;99.90;;;;;;5071954;28;20488;-70
2022/01/24 05:37:52;;;;;;;0.10;0.10;;;1.60;99.90;;;;;;5055697;28;20048;-70
2022/01/24 05:40:18;;;;;;;0.10;0.10;;;1.60;99.90;;;;;;5071689;28;20032;-70
2022/01/24 05:42:43;;;;;;;0.10;0.10;;;1.50;99.90;;;;;;5053836;28;20036;-70
2022/01/24 05:45:09;;;;;;;0.10;0.10;;;1.50;99.90;;;;;;5067195;28;20094;-70
2022/01/24 05:47:35;;;;;;;0.10;0.10;;;1.50;99.90;;;;;;5091490;28;20112;-70
2022/01/24 05:50:01;;;;;;;0.10;0.10;;;1.60;99.90;;;;;;5078311;28;20029;-71
2022/01/24 05:52:26;;;;;;;0.38;0.38;;;1.60;99.90;;;;;;5052947;28;20021;-71
2022/01/24 05:54:52;;;;;;;0.10;0.10;;;1.60;99.90;;;;;;5071188;28;20085;-71
2022/01/24 05:57:18;;;;;;;0.10;0.10;;;1.60;99.90;;;;;;5071137;28;20070;-71
2022/01/24 05:59:43;;;;;;;0.15;0.15;;;1.60;99.90;;;;;;5058404;28;20063;-70
2022/01/24 06:02:09;;;;;;;0.10;0.10;;;1.60;99.90;;;;;;5050723;28;20178;-70
2022/01/24 06:04:35;;;;;;;0.10;0.10;;;1.60;99.90;;;;;;5051479;28;20039;-72
2022/01/24 06:07:00;;;;;;;0.10;0.10;;;1.60;99.90;;;;;;5054316;28;20521;-70
2022/01/24 06:09:26;;;;;;;0.10;0.10;;;1.60;99.90;;;;;;5068048;28;20386;-70
2022/01/24 06:11:52;;;;;;;0.10;0.10;;;1.60;99.90;;;;;;5071310;28;20423;-71
2022/01/24 06:14:18;;;;;;;0.10;0.10;;;1.60;99.90;;;;;;5065406;28;20037;-70
2022/01/24 06:16:44;;;;;;;0.10;0.10;;;1.60;99.90;;;;;;5051327;28;20130;-71
2022/01/24 06:19:09;;;;;;;0.10;0.10;;;1.50;99.90;;;;;;5050846;28;20029;-70
2022/01/24 06:21:35;;;;;;;0.10;0.10;;;1.50;99.90;;;;;;5054025;28;20501;-71
2022/01/24 06:24:03;;;;;;;0.10;0.10;;;1.50;99.90;;;;;;5059827;28;20021;-71
2022/01/24 06:26:29;;;;;;;0.10;0.10;;;1.50;99.90;;;;;;5051129;28;20032;-70
2022/01/24 06:28:55;;;;;;;0.10;0.10;;;1.50;99.90;;;;;;5050745;28;20434;-71
2022/01/24 06:31:20;;;;;;;0.40;0.40;;;1.50;99.90;;;;;;5053161;28;20091;-71
2022/01/24 06:33:48;;;;;;;0.10;0.10;;;1.60;99.90;;;;;;5070144;28;20036;-71
2022/01/24 06:36:14;;;;;;;0.10;0.10;;;1.60;99.90;;;;;;5070803;28;20025;-70
2022/01/24 06:38:40;;;;;;;0.52;0.52;;;1.70;99.90;;;;;;5070519;28;20040;-71
2022/01/24 06:41:07;;;;;;;0.10;0.10;;;1.70;99.90;;;;;;5055385;28;20570;-71
2022/01/24 06:43:32;;;;;;;2.00;1.38;;;1.70;99.90;;;;;;5050314;28;20099;-70
2022/01/24 06:45:58;;;;;;;1.60;1.58;;;1.90;99.90;;;;;;5060935;28;20420;-70
2022/01/24 06:48:24;;;;;;;0.10;0.10;;;1.90;99.90;;;;;;5066362;28;20033;-71
2022/01/24 06:50:50;;;;;;;0.10;0.10;;;1.90;99.90;;;;;;5067047;28;20037;-72
2022/01/24 06:53:15;;;;;;;0.10;0.10;;;1.90;99.90;;;;;;5069081;28;20447;-70
2022/01/24 06:55:41;;;;;;;2.40;2.30;;;1.90;99.90;;;;;;5058946;28;20111;-70
2022/01/24 06:58:07;;;;;;;0.10;0.10;;;1.90;99.90;;;;;;5069474;28;20020;-69
2022/01/24 07:00:33;;;;;;;0.10;0.10;;;1.80;99.90;;;;;;5069456;28;20032;-70
2022/01/24 07:02:59;;;;;;;0.10;0.10;;;1.80;99.90;;;;;;5065496;28;20025;-72
2022/01/24 07:05:26;;;;;;;0.63;0.63;;;1.80;99.90;;;;;;5066355;28;20521;-69
2022/01/24 07:07:52;;;;;;;0.10;0.10;;;1.90;99.90;;;;;;5069368;28;20029;-71
2022/01/24 07:10:17;;;;;;;0.10;0.10;;;1.90;99.90;;;;;;5070393;28;20020;-70
2022/01/24 07:12:45;;;;;;;0.10;0.10;;;1.90;99.90;;;;;;5086546;28;20430;-70
2022/01/24 07:15:14;;;;;;;0.10;0.10;;;2.00;99.90;;;;;;5072934;28;20450;-71
2022/01/24 07:20:24;;;;;;;0.10;0.10;;;2.00;99.90;;;;;;5068787;28;20430;-71
2022/01/24 07:22:50;;;;;;;0.10;0.10;;;2.20;99.90;;;;;;5076369;28;20044;-69
2022/01/24 07:25:16;;;;;;;0.63;0.63;;;2.20;99.90;;;;;;5056983;28;20393;-70
2022/01/24 07:27:41;;;;;;;0.10;0.10;;;2.20;99.90;;;;;;5096281;22;20101;-73
2022/01/24 07:30:07;;;;;;;0.63;0.63;;;2.20;99.90;;;;;;5081355;28;20024;-72
2022/01/24 07:32:33;;;;;;;0.10;0.10;;;2.20;99.90;;;;;;5080838;28;20453;-73
2022/01/24 07:34:58;;;;;;;0.20;0.20;;;2.30;99.90;;;;;;5088693;28;20081;-74
2022/01/24 07:37:25;;;;;;;0.13;0.13;;;2.30;99.90;;;;;;5081236;28;20398;-75
2022/01/24 07:39:54;;;;;;;0.10;0.10;;;2.40;99.90;;;;;;5070883;28;20058;-73
2022/01/24 07:43:09;;;;;;;0.20;0.20;;;2.30;99.90;;;;;;5068752;28;20051;-73
2022/01/24 07:45:08;;;;;;;0.10;0.10;;;2.40;99.90;;;;;;5054942;28;20501;-73
2022/01/24 07:47:34;;;;;;;0.50;0.50;;;2.50;99.90;;;;;;5058316;28;20032;-74
2022/01/24 07:50:00;;;;;;;0.80;0.80;;;2.50;99.90;;;;;;5065229;28;20543;-74
2022/01/24 07:52:26;;;;;;;0.43;0.43;;;2.50;99.90;;;;;;5067739;28;20028;-73
2022/01/24 07:54:51;;;;;;;0.10;0.10;;;2.60;99.90;;;;;;5067770;28;20036;-76
2022/01/24 07:57:17;;;;;;;1.45;1.38;;;2.60;99.90;;;;;;5066592;28;20024;-73
2022/01/24 07:59:43;;;;;;;0.73;0.73;;;2.50;99.90;;;;;;5070306;28;20617;-73
2022/01/24 08:02:08;;;;;;;0.43;0.43;;;2.60;99.90;;;;;;5066089;28;20024;-76
2022/01/24 08:04:34;;;;;;;0.10;0.10;;;2.60;99.90;;;;;;5068347;28;20032;-75
2022/01/24 08:06:59;;;;;;;0.77;0.77;;;2.80;99.90;;;;;;5064470;28;20072;-76
2022/01/24 08:09:25;;;;;;;0.10;0.10;;;2.80;99.90;;;;;;5062052;28;20078;-73
2022/01/24 08:11:51;;;;;;;0.10;0.10;;;2.80;99.90;;;;;;5063047;28;20051;-73
2022/01/24 08:14:17;;;;;;;2.50;1.85;;;2.80;99.90;;;;;;5060155;28;20079;-74
2022/01/24 08:16:43;;;;;;;0.13;0.13;;;2.80;99.90;;;;;;5066190;28;20028;-74
2022/01/24 08:19:09;;;;;;;0.10;0.10;;;2.80;99.90;;;;;;5067168;28;20478;-73
2022/01/24 08:21:34;;;;;;;0.10;0.10;;;2.90;99.90;;;;;;5065897;28;20040;-73
2022/01/24 08:24:02;;;;;;;0.10;0.10;;;2.90;99.90;;;;;;5064810;28;20028;-72
2022/01/24 08:26:28;;;;;;;0.10;0.10;;;2.90;99.90;;;;;;5065688;28;20111;-72
2022/01/24 08:28:53;;;;;;;1.95;1.85;;;3.00;99.90;;;;;;5063573;28;20099;-72
2022/01/24 08:31:19;;;;;;;0.10;0.10;;;3.00;99.90;;;;;;5067001;28;20020;-74
2022/01/24 08:33:46;;;;;;;0.10;0.10;;;3.00;99.90;;;;;;5063727;28;20055;-72
2022/01/24 08:36:12;;;;;;;0.10;0.10;;;2.90;99.90;;;;;;5062648;28;20027;-74
2022/01/24 08:38:38;;;;;;;0.10;0.10;;;2.90;99.90;;;;;;5065016;28;20024;-73
2022/01/24 08:41:16;;;;;;;0.10;0.10;;;3.00;99.90;;;;;;5064952;28;20429;-74
2022/01/24 08:46:13;;;;;;;2.05;1.95;;;3.00;99.90;;;;;;5067882;28;20024;-75
2022/01/24 08:48:38;;;;;;;1.38;1.35;;;3.10;99.90;;;;;;5067733;28;20017;-74
2022/01/24 08:51:04;;;;;;;0.65;0.65;;;3.30;99.90;;;;;;5067235;28;20062;-74
2022/01/24 08:53:31;;;;;;;0.10;0.10;;;3.40;99.90;;;;;;5072541;28;20036;-74
2022/01/24 08:56:02;;;;;;;0.20;0.20;;;3.50;99.90;;;;;;5069332;28;20086;-72
2022/01/24 08:58:28;;;;;;;0.10;0.10;;;3.50;99.90;;;;;;5068911;28;20020;-73
2022/01/24 09:00:54;;;;;;;0.45;0.45;;;3.40;99.90;;;;;;5069500;28;20096;-73
2022/01/24 09:03:20;;;;;;;1.25;1.25;;;3.50;99.90;;;;;;5070863;28;20055;-75
2022/01/24 09:05:48;;;;;;;0.10;0.10;;;3.60;99.90;;;;;;5070959;28;20028;-74
2022/01/24 09:08:14;;;;;;;0.10;0.10;;;3.60;99.90;;;;;;5072737;28;20501;-77
2022/01/24 09:10:43;;;;;;;0.20;0.20;;;3.70;99.90;;;;;;5067368;28;20102;-74
2022/01/24 09:13:09;;;;;;;0.45;0.45;;;3.60;99.90;;;;;;5070040;28;20027;-75
2022/01/24 09:15:35;;;;;;;0.20;0.20;;;3.80;99.90;;;;;;5068472;28;20448;-75
2022/01/24 09:18:01;;;;;;;0.30;0.30;;;4.00;99.90;;;;;;5070691;28;20028;-75
2022/01/24 09:20:27;;;;;;;0.30;0.30;;;3.90;99.90;;;;;;5067530;28;20036;-74
2022/01/24 09:22:52;;;;;;;0.10;0.10;;;3.80;99.90;;;;;;5068814;28;20126;-74
2022/01/24 09:25:20;;;;;;;0.20;0.20;;;3.70;99.90;;;;;;5067265;28;20469;-75
2022/01/24 09:27:47;;;;;;;0.10;0.10;;;3.70;99.90;;;;;;5068434;28;20036;-74
2022/01/24 09:30:14;;;;;;;0.10;0.10;;;3.80;99.90;;;;;;5069767;28;20056;-74
2022/01/24 09:32:41;;;;;;;0.10;0.10;;;3.80;99.90;;;;;;5055423;28;20095;-72
2022/01/24 09:35:08;;;;;;;0.10;0.10;;;3.80;99.90;;;;;;5067300;28;20025;-73
2022/01/24 09:37:35;;;;;;;0.10;0.10;;;3.80;99.90;;;;;;5069018;28;20024;-74
2022/01/24 09:40:01;;;;;;;0.20;0.20;;;3.90;99.90;;;;;;5066404;28;20108;-75
2022/01/24 09:42:27;;;;;;;0.10;0.10;;;3.90;99.90;;;;;;5067329;28;20024;-75
2022/01/24 09:44:53;;;;;;;1.30;1.30;;;4.10;99.90;;;;;;5067182;28;20398;-74
2022/01/24 09:47:19;;;;;;;0.10;0.10;;;4.10;99.90;;;;;;5072563;28;20017;-72
2022/01/24 09:49:50;;;;;;;0.10;0.10;;;4.10;99.90;;;;;;5069106;28;20021;-76
2022/01/24 09:52:16;;;;;;;0.10;0.10;;;4.10;99.90;;;;;;5069058;28;20021;-76
2022/01/24 09:54:42;;;;;;;0.10;0.10;;;4.20;99.90;;;;;;5064816;28;20112;-72
2022/01/24 09:57:07;;;;;;;0.10;0.10;;;4.20;99.90;;;;;;5066757;28;20020;-72
2022/01/24 09:59:33;;;;;;;0.10;0.10;;;4.20;99.90;;;;;;5066898;28;20506;-74
2022/01/24 10:02:00;;;;;;;0.10;0.10;;;4.30;99.90;;;;;;5065662;28;20028;-72
2022/01/24 10:04:26;;;;;;;0.20;0.20;;;4.30;99.90;;;;;;5069605;28;20466;-71
2022/01/24 10:07:15;;;;;;;0.10;0.10;;;4.50;99.90;;;;;;5065920;28;20032;-73
2022/01/24 10:09:51;;;;;;;0.10;0.10;;;4.60;99.90;;;;;;5061306;28;20020;-73
2022/01/24 10:18:02;;;;;;;0.10;0.10;;;4.80;99.90;;;;;;5066235;28;20043;-73
2022/01/24 10:20:32;;;;;;;0.10;0.10;;;4.90;99.90;;;;;;5068431;28;20117;-74
2022/01/24 10:23:04;;;;;;;0.10;0.10;;;4.90;99.90;;;;;;5066195;28;20028;-74
2022/01/24 10:25:31;;;;;;;0.10;0.10;;;4.90;99.90;;;;;;5062895;28;20458;-73
2022/01/24 10:28:01;;;;;;;0.20;0.20;;;5.00;99.90;;;;;;5064631;28;20080;-74
2022/01/24 10:30:28;;;;;;;0.10;0.10;;;5.00;99.90;;;;;;5062906;28;20032;-73
2022/01/24 10:32:55;;;;;;;0.10;0.10;;;5.00;99.90;;;;;;5053748;28;20034;-73
2022/01/24 10:35:21;;;;;;;0.35;0.35;;;5.00;99.90;;;;;;5062033;28;20024;-73
2022/01/24 10:37:49;;;;;;;0.20;0.20;;;5.10;99.90;;;;;;5068086;28;20040;-73
2022/01/24 10:40:46;;;;;;;2.83;2.47;;;5.10;99.90;;;;;;5067858;28;20030;-72
2022/01/24 10:43:17;;;;;;;0.32;0.32;;;5.20;99.90;;;;;;5065154;28;20565;-72
2022/01/24 10:45:44;;;;;;;0.10;0.10;;;5.20;99.90;;;;;;5047444;28;20882;-74
2022/01/24 10:48:10;;;;;;;0.10;0.10;;;5.30;99.90;;;;;;5061017;28;20032;-74
2022/01/24 10:50:36;;;;;;;0.10;0.10;;;5.30;99.90;;;;;;5067039;28;20025;-73
2022/01/24 10:53:15;;;;;;;0.10;0.10;;;5.40;99.90;;;;;;5068912;28;20028;-73
2022/01/24 10:55:43;;;;;;;0.10;0.10;;;5.40;99.90;;;;;;5068008;28;20028;-73
2022/01/24 10:58:13;;;;;;;0.20;0.20;;;5.50;99.90;;;;;;5056738;28;20044;-72
2022/01/24 11:00:40;;;;;;;0.10;0.10;;;5.50;99.90;;;;;;5064365;28;20045;-72
2022/01/24 11:03:08;;;;;;;0.20;0.20;;;5.60;99.90;;;;;;5035059;28;20024;-73
2022/01/24 11:05:36;;;;;;;0.10;0.10;;;5.70;99.90;;;;;;5067614;28;20021;-72
2022/01/24 11:08:05;;;;;;;0.88;0.82;;;5.80;99.90;;;;;;5065793;28;20024;-73
2022/01/24 11:10:34;;;;;;;0.10;0.10;;;5.80;99.90;;;;;;5053143;28;20020;-73
2022/01/24 11:13:05;;;;;;;0.10;0.10;;;5.80;99.90;;;;;;5066562;28;20074;-72
2022/01/24 11:15:33;;;;;;;0.10;0.10;;;5.80;99.90;;;;;;5063001;28;20020;-74
2022/01/24 11:17:59;;;;;;;0.10;0.10;;;5.80;99.90;;;;;;5064639;28;20036;-73
2022/01/24 11:20:32;;;;;;;0.10;0.10;;;5.90;99.90;;;;;;5064265;28;20028;-73
2022/01/24 11:23:04;;;;;;;0.82;0.82;;;5.90;99.90;;;;;;5049359;28;20149;-74
2022/01/24 11:25:39;;;;;;;0.10;0.10;;;6.00;99.90;;;;;;5063186;28;20032;-73
2022/01/24 11:28:06;;;;;;;0.10;0.10;;;6.00;99.90;;;;;;5053121;28;20490;-73
2022/01/24 11:30:53;;;;;;;0.13;0.13;;;6.20;99.90;;;;;;5065349;28;20028;-73
2022/01/24 11:33:32;;;;;;;0.10;0.10;;;6.20;99.90;;;;;;5065162;28;20029;-74
2022/01/24 11:36:01;;;;;;;0.10;0.10;;;6.20;99.90;;;;;;5064468;28;20036;-75
2022/01/24 11:38:33;;;;;;;0.40;0.40;;;6.90;99.90;;;;;;5065573;28;20021;-76
2022/01/24 11:41:13;;;;;;;0.20;0.20;;;6.40;99.90;;;;;;5066884;28;20552;-77
2022/01/24 11:43:44;;;;;;;0.10;0.10;;;6.40;99.90;;;;;;5069241;28;20500;-73
2022/01/24 11:46:40;;;;;;;0.10;0.10;;;6.50;99.90;;;;;;5074492;28;20473;-74
2022/01/24 11:49:09;;;;;;;0.10;0.10;;;6.50;99.90;;;;;;5076557;28;20388;-70
2022/01/24 11:51:39;;;;;;;0.10;0.10;;;6.60;99.90;;;;;;5073088;28;20031;-74
2022/01/24 11:57:25;;;;;;;0.10;0.10;;;6.60;99.90;;;;;;5067037;28;20051;-83
2022/01/24 12:00:12;;;;;;;0.10;0.10;;;6.60;99.90;;;;;;5065524;28;20098;-74
2022/01/24 12:02:47;;;;;;;1.45;1.35;;;6.70;99.90;;;;;;5066203;28;20029;-79
2022/01/24 12:05:17;;;;;;;0.10;0.10;;;6.70;99.90;;;;;;5068259;28;20376;-80
2022/01/24 12:07:45;;;;;;;0.10;0.10;;;6.70;99.90;;;;;;5070911;28;20103;-79
2022/01/24 12:10:41;;;;;;;0.10;0.10;;;6.70;99.90;;;;;;5077382;28;20028;-77
2022/01/24 12:13:19;;;;;;;0.10;0.10;;;6.60;99.90;;;;;;5056093;28;20466;-76
2022/01/24 12:15:48;;;;;;;0.10;0.10;;;6.60;99.90;;;;;;5067679;28;20028;-81
2022/01/24 12:18:42;;;;;;;4.03;3.75;;;6.70;99.90;;;;;;5067802;28;20036;-72
2022/01/24 12:21:09;;;;;;;0.10;0.10;;;6.70;99.90;;;;;;5067329;28;20035;-76
2022/01/24 12:23:46;;;;;;;0.10;0.10;;;6.60;99.90;;;;;;5068783;28;20020;-74
2022/01/24 12:26:14;;;;;;;0.25;0.25;;;6.40;99.90;;;;;;5072758;28;20028;-72
2022/01/24 12:28:43;;;;;;;0.10;0.10;;;6.40;99.90;;;;;;5070258;28;20028;-71
2022/01/24 12:31:16;;;;;;;0.57;0.57;;;6.60;99.90;;;;;;5068175;28;20017;-73
2022/01/24 12:33:58;;;;;;;0.10;0.10;;;6.60;99.90;;;;;;5071427;28;20032;-72
2022/01/24 12:37:00;;;;;;;0.10;0.10;;;6.60;99.90;;;;;;5065948;28;20094;-72
2022/01/24 12:39:33;;;;;;;0.10;0.10;;;6.80;99.90;;;;;;5066561;28;20563;-73
2022/01/24 12:42:10;;;;;;;0.40;0.40;;;6.90;99.90;;;;;;5066591;28;20029;-72
2022/01/24 12:47:10;;;;;;;0.10;0.10;;;6.90;99.90;;;;;;5070292;28;20025;-72
2022/01/24 12:49:37;;;;;;;0.10;0.10;;;7.00;99.90;;;;;;5066229;28;20027;-73
2022/01/24 12:52:09;;;;;;;0.10;0.10;;;7.10;99.90;;;;;;5073757;28;20028;-72
2022/01/24 12:54:39;;;;;;;0.10;0.10;;;7.00;99.90;;;;;;5069017;28;20036;-73
2022/01/24 12:57:11;;;;;;;0.10;0.10;;;6.90;99.90;;;;;;5069448;28;20028;-73
2022/01/24 12:59:38;;;;;;;0.10;0.10;;;7.00;99.90;;;;;;5069022;28;20512;-73
2022/01/24 13:02:05;;;;;;;0.10;0.10;;;7.10;99.90;;;;;;5068743;28;20081;-72
2022/01/24 13:04:40;;;;;;;0.10;0.10;;;7.10;99.90;;;;;;5070113;28;20147;-73
2022/01/24 13:07:07;;;;;;;0.10;0.10;;;7.10;99.90;;;;;;5068467;28;20021;-73
2022/01/24 13:09:35;;;;;;;0.10;0.10;;;7.10;99.90;;;;;;5063523;28;20025;-73
2022/01/24 13:12:04;;;;;;;0.10;0.10;;;7.10;99.90;;;;;;5070205;28;20103;-73
2022/01/24 13:14:49;;;;;;;0.10;0.10;;;7.00;99.90;;;;;;5052036;28;20111;-73
2022/01/24 13:23:01;;;;;;;0.10;0.10;;;7.10;99.90;;;;;;5069734;28;20043;-73
2022/01/24 13:25:38;;;;;;;0.10;0.10;;;7.20;99.90;;;;;;5066555;28;20496;-72
2022/01/24 13:28:08;;;;;;;0.10;0.10;;;7.20;99.90;;;;;;5065928;28;20032;-73
2022/01/24 13:30:58;;;;;;;0.10;0.10;;;7.30;99.90;;;;;;5068241;28;20024;-73
2022/01/24 13:33:25;;;;;;;0.10;0.10;;;7.30;99.90;;;;;;5068316;28;20049;-73
2022/01/24 13:35:58;;;;;;;0.10;0.10;;;8.20;99.90;;;;;;5066105;28;20028;-73
2022/01/24 13:38:48;;;;;;;0.10;0.10;;;10.70;99.90;;;;;;5074371;28;20028;-73
2022/01/24 13:41:20;;;;;;;0.10;0.10;;;12.30;99.90;;;;;;5069626;28;20027;-72
2022/01/24 13:43:45;;;;;;;0.82;0.82;;;13.40;91.90;;;;;;5065397;28;20138;-73
2022/01/24 13:46:16;;;;;;;0.00;0.00;;;13.80;86.60;;;;;;5059997;28;20103;-73
2022/01/24 13:48:57;;;;;;;0.10;0.10;;;14.00;84.90;;;;;;5068070;28;20048;-73
2022/01/24 13:51:26;;;;;;;0.00;0.00;;;14.70;80.50;;;;;;5066383;28;20017;-72
2022/01/24 13:53:52;;;;;;;0.20;0.20;;;15.20;74.10;;;;;;5071223;28;20035;-72
2022/01/24 13:56:24;;;;;;;0.00;0.00;;;15.70;71.20;;;;;;5065097;28;20112;-72
2022/01/24 13:59:09;;;;;;;0.10;0.10;;;15.60;69.40;;;;;;5065738;28;20024;-74
2022/01/24 14:01:38;;;;;;;0.00;0.00;;;15.30;67.50;;;;;;5068942;28;20062;-72
2022/01/24 14:04:06;;;;;;;0.00;0.00;;;15.90;67.10;;;;;;5067058;28;20514;-73
2022/01/24 14:06:38;;;;;;;0.00;0.00;;;15.30;66.80;;;;;;5069096;28;20028;-73
2022/01/24 14:09:12;;;;;;;0.00;0.00;;;15.60;66.40;;;;;;5070157;28;20036;-72
2022/01/24 14:11:47;;;;;;;0.00;0.00;;;16.00;63.80;;;;;;5064396;28;20490;-73
2022/01/24 14:14:18;;;;;;;0.00;0.00;;;15.90;63.40;;;;;;5068408;28;20050;-72
2022/01/24 14:16:57;;;;;;;0.00;0.00;;;15.30;64.90;;;;;;5066998;28;20039;-73
2022/01/24 14:19:36;;;;;;;0.00;0.00;;;15.40;63.50;;;;;;5065847;28;20136;-74
2022/01/24 14:22:09;;;;;;;0.00;0.00;;;15.30;64.10;;;;;;5064020;28;20090;-73
2022/01/24 14:24:50;;;;;;;0.00;0.00;;;15.50;64.90;;;;;;5068432;28;20035;-73
2022/01/24 14:27:41;;;;;;;2.00;1.70;;;16.40;61.70;;;;;;5066251;28;20487;-73
2022/01/24 14:30:13;;;;;;;0.00;0.00;;;16.10;61.30;;;;;;5065953;28;20020;-77
2022/01/24 14:33:01;;;;;;;0.00;0.00;;;16.20;61.90;;;;;;5071893;28;20028;-73
2022/01/24 14:35:29;;;;;;;0.00;0.00;;;15.50;62.60;;;;;;5066788;28;20021;-73
2022/01/24 14:37:56;;;;;;;0.00;0.00;;;15.40;61.90;;;;;;5065237;28;20457;-72
2022/01/24 14:40:48;;;;;;;0.00;0.00;;;15.10;63.10;;;;;;5068456;28;20025;-73
2022/01/24 14:46:11;;;;;;;0.00;0.00;;;14.20;64.90;;;;;;5067738;28;20086;-72
2022/01/24 14:48:49;;;;;;;0.00;0.00;;;14.40;65.50;;;;;;5065935;28;20503;-74
2022/01/24 14:51:24;;;;;;;0.00;0.00;;;15.10;63.00;;;;;;5066410;28;20033;-72
2022/01/24 14:53:52;;;;;;;0.00;0.00;;;15.00;62.80;;;;;;5068021;28;20036;-73
2022/01/24 14:56:18;;;;;;;0.00;0.00;;;14.90;63.10;;;;;;5066488;28;20452;-71
2022/01/24 14:58:44;;;;;;;0.00;0.00;;;15.10;62.90;;;;;;5064049;28;20613;-72
2022/01/24 15:01:11;;;;;;;0.00;0.00;;;14.50;63.40;;;;;;5067482;28;20052;-74
2022/01/24 15:03:37;;;;;;;0.00;0.00;;;14.50;64.00;;;;;;5064366;28;20020;-73
2022/01/24 15:06:04;;;;;;;0.00;0.00;;;14.20;64.70;;;;;;5064723;28;20036;-73
2022/01/24 15:08:30;;;;;;;0.00;0.00;;;14.10;65.20;;;;;;5057279;28;20024;-73
2022/01/24 15:10:56;;;;;;;0.20;0.20;;;13.50;66.00;;;;;;5048763;28;20136;-74